sensor_id;sensor_type;location;lat;lon;timestamp;P1;durP1;ratioP1;P2;durP2;ratioP2
71856;SDS011;63344;46.980;28.882;2023-04-29T00:00:57;5.60;;;2.50;;
71856;SDS011;63344;46.980;28.882;2023-04-29T00:03:24;4.65;;;1.80;;
71856;SDS011;63344;46.980;28.882;2023-04-29T00:06:01;6.80;;;2.85;;
71856;SDS011;63344;46.980;28.882;2023-04-29T00:08:28;5.40;;;2.25;;
71856;SDS011;63344;46.980;28.882;2023-04-29T00:10:55;6.93;;;2.67;;
71856;SDS011;63344;46.980;28.882;2023-04-29T00:13:25;6.57;;;2.58;;
71856;SDS011;63344;46.980;28.882;2023-04-29T00:15:53;4.20;;;1.83;;
71856;SDS011;63344;46.980;28.882;2023-04-29T00:18:20;5.22;;;2.03;;
71856;SDS011;63344;46.980;28.882;2023-04-29T00:20:47;6.00;;;2.10;;
71856;SDS011;63344;46.980;28.882;2023-04-29T00:23:15;5.68;;;2.50;;
71856;SDS011;63344;46.980;28.882;2023-04-29T00:25:42;6.88;;;2.83;;
71856;SDS011;63344;46.980;28.882;2023-04-29T00:28:09;9.57;;;2.08;;
71856;SDS011;63344;46.980;28.882;2023-04-29T00:30:36;6.95;;;2.38;;
71856;SDS011;63344;46.980;28.882;2023-04-29T00:33:04;5.70;;;2.20;;
71856;SDS011;63344;46.980;28.882;2023-04-29T00:35:31;5.63;;;2.40;;
71856;SDS011;63344;46.980;28.882;2023-04-29T00:37:58;6.18;;;2.60;;
71856;SDS011;63344;46.980;28.882;2023-04-29T00:40:26;7.38;;;2.33;;
71856;SDS011;63344;46.980;28.882;2023-04-29T00:42:54;6.53;;;2.78;;
71856;SDS011;63344;46.980;28.882;2023-04-29T00:45:23;3.17;;;1.73;;
71856;SDS011;63344;46.980;28.882;2023-04-29T00:47:50;6.47;;;2.28;;
71856;SDS011;63344;46.980;28.882;2023-04-29T00:50:18;4.18;;;1.90;;
71856;SDS011;63344;46.980;28.882;2023-04-29T00:52:45;5.78;;;2.67;;
71856;SDS011;63344;46.980;28.882;2023-04-29T00:55:14;5.50;;;2.50;;
71856;SDS011;63344;46.980;28.882;2023-04-29T00:57:44;5.80;;;2.40;;
71856;SDS011;63344;46.980;28.882;2023-04-29T01:00:14;4.10;;;1.63;;
71856;SDS011;63344;46.980;28.882;2023-04-29T01:02:42;5.93;;;2.20;;
71856;SDS011;63344;46.980;28.882;2023-04-29T01:05:10;6.35;;;2.78;;
71856;SDS011;63344;46.980;28.882;2023-04-29T01:10:53;3.08;;;1.92;;
71856;SDS011;63344;46.980;28.882;2023-04-29T01:13:36;3.95;;;1.88;;
71856;SDS011;63344;46.980;28.882;2023-04-29T01:16:11;4.45;;;2.50;;
71856;SDS011;63344;46.980;28.882;2023-04-29T01:18:51;4.07;;;2.00;;
71856;SDS011;63344;46.980;28.882;2023-04-29T01:21:23;6.03;;;2.20;;
71856;SDS011;63344;46.980;28.882;2023-04-29T01:23:50;3.15;;;1.73;;
71856;SDS011;63344;46.980;28.882;2023-04-29T01:26:22;6.55;;;2.38;;
71856;SDS011;63344;46.980;28.882;2023-04-29T01:28:55;5.38;;;2.50;;
71856;SDS011;63344;46.980;28.882;2023-04-29T01:34:13;4.10;;;1.67;;
71856;SDS011;63344;46.980;28.882;2023-04-29T01:45:04;5.50;;;2.13;;
71856;SDS011;63344;46.980;28.882;2023-04-29T01:47:34;6.65;;;2.30;;
71856;SDS011;63344;46.980;28.882;2023-04-29T01:52:31;11.18;;;1.67;;
71856;SDS011;63344;46.980;28.882;2023-04-29T01:54:58;4.75;;;2.15;;
71856;SDS011;63344;46.980;28.882;2023-04-29T01:57:27;3.80;;;1.80;;
71856;SDS011;63344;46.980;28.882;2023-04-29T01:59:54;7.38;;;2.38;;
71856;SDS011;63344;46.980;28.882;2023-04-29T02:02:23;3.95;;;2.35;;
71856;SDS011;63344;46.980;28.882;2023-04-29T02:04:51;4.00;;;2.20;;
71856;SDS011;63344;46.980;28.882;2023-04-29T02:07:19;3.13;;;1.75;;
71856;SDS011;63344;46.980;28.882;2023-04-29T02:09:46;6.10;;;2.70;;
71856;SDS011;63344;46.980;28.882;2023-04-29T02:12:15;5.95;;;2.53;;
71856;SDS011;63344;46.980;28.882;2023-04-29T02:14:42;6.57;;;2.95;;
71856;SDS011;63344;46.980;28.882;2023-04-29T02:17:11;4.00;;;2.28;;
71856;SDS011;63344;46.980;28.882;2023-04-29T02:19:38;3.80;;;2.15;;
71856;SDS011;63344;46.980;28.882;2023-04-29T02:22:05;15.75;;;2.40;;
71856;SDS011;63344;46.980;28.882;2023-04-29T02:24:33;8.55;;;2.55;;
71856;SDS011;63344;46.980;28.882;2023-04-29T02:27:01;4.35;;;2.35;;
71856;SDS011;63344;46.980;28.882;2023-04-29T02:29:32;6.30;;;2.78;;
71856;SDS011;63344;46.980;28.882;2023-04-29T02:32:00;8.65;;;2.75;;
71856;SDS011;63344;46.980;28.882;2023-04-29T02:34:27;5.35;;;2.72;;
71856;SDS011;63344;46.980;28.882;2023-04-29T02:36:55;6.45;;;2.80;;
71856;SDS011;63344;46.980;28.882;2023-04-29T02:39:22;6.85;;;2.58;;
71856;SDS011;63344;46.980;28.882;2023-04-29T02:41:52;4.63;;;2.13;;
71856;SDS011;63344;46.980;28.882;2023-04-29T02:44:20;4.88;;;2.47;;
71856;SDS011;63344;46.980;28.882;2023-04-29T02:46:48;3.80;;;2.45;;
71856;SDS011;63344;46.980;28.882;2023-04-29T02:49:15;6.78;;;2.47;;
71856;SDS011;63344;46.980;28.882;2023-04-29T02:51:43;9.98;;;2.72;;
71856;SDS011;63344;46.980;28.882;2023-04-29T02:54:10;5.15;;;2.17;;
71856;SDS011;63344;46.980;28.882;2023-04-29T02:56:37;5.03;;;2.42;;
71856;SDS011;63344;46.980;28.882;2023-04-29T02:59:04;5.63;;;2.35;;
71856;SDS011;63344;46.980;28.882;2023-04-29T03:01:32;5.72;;;2.90;;
71856;SDS011;63344;46.980;28.882;2023-04-29T03:03:59;3.83;;;1.83;;
71856;SDS011;63344;46.980;28.882;2023-04-29T03:06:27;4.63;;;2.55;;
71856;SDS011;63344;46.980;28.882;2023-04-29T03:08:54;6.57;;;3.03;;
71856;SDS011;63344;46.980;28.882;2023-04-29T03:11:21;3.38;;;2.00;;
71856;SDS011;63344;46.980;28.882;2023-04-29T03:13:50;3.17;;;1.63;;
71856;SDS011;63344;46.980;28.882;2023-04-29T03:16:17;4.53;;;2.30;;
71856;SDS011;63344;46.980;28.882;2023-04-29T03:18:44;4.25;;;1.92;;
71856;SDS011;63344;46.980;28.882;2023-04-29T03:21:12;4.95;;;2.55;;
71856;SDS011;63344;46.980;28.882;2023-04-29T03:23:39;8.60;;;2.95;;
71856;SDS011;63344;46.980;28.882;2023-04-29T03:26:06;5.43;;;2.35;;
71856;SDS011;63344;46.980;28.882;2023-04-29T03:28:33;5.53;;;2.75;;
71856;SDS011;63344;46.980;28.882;2023-04-29T03:31:02;5.28;;;2.47;;
71856;SDS011;63344;46.980;28.882;2023-04-29T03:33:29;5.13;;;2.30;;
71856;SDS011;63344;46.980;28.882;2023-04-29T03:35:56;5.50;;;2.35;;
71856;SDS011;63344;46.980;28.882;2023-04-29T03:38:23;8.43;;;2.28;;
71856;SDS011;63344;46.980;28.882;2023-04-29T03:40:52;5.18;;;2.42;;
71856;SDS011;63344;46.980;28.882;2023-04-29T03:43:19;5.43;;;2.42;;
71856;SDS011;63344;46.980;28.882;2023-04-29T03:45:46;6.57;;;2.65;;
71856;SDS011;63344;46.980;28.882;2023-04-29T03:48:13;3.80;;;1.52;;
71856;SDS011;63344;46.980;28.882;2023-04-29T03:50:41;6.20;;;2.75;;
71856;SDS011;63344;46.980;28.882;2023-04-29T03:53:08;15.35;;;3.45;;
71856;SDS011;63344;46.980;28.882;2023-04-29T03:55:36;6.95;;;3.97;;
71856;SDS011;63344;46.980;28.882;2023-04-29T03:58:03;2.65;;;1.40;;
71856;SDS011;63344;46.980;28.882;2023-04-29T04:00:33;6.72;;;2.15;;
71856;SDS011;63344;46.980;28.882;2023-04-29T04:03:00;6.63;;;2.47;;
71856;SDS011;63344;46.980;28.882;2023-04-29T04:05:33;7.97;;;2.30;;
71856;SDS011;63344;46.980;28.882;2023-04-29T04:08:00;8.30;;;2.55;;
71856;SDS011;63344;46.980;28.882;2023-04-29T04:10:28;5.05;;;2.40;;
71856;SDS011;63344;46.980;28.882;2023-04-29T04:12:55;7.85;;;2.85;;
71856;SDS011;63344;46.980;28.882;2023-04-29T04:15:23;4.85;;;2.80;;
71856;SDS011;63344;46.980;28.882;2023-04-29T04:17:52;4.70;;;2.85;;
71856;SDS011;63344;46.980;28.882;2023-04-29T04:20:40;8.05;;;2.70;;
71856;SDS011;63344;46.980;28.882;2023-04-29T04:23:08;4.45;;;2.30;;
71856;SDS011;63344;46.980;28.882;2023-04-29T04:25:36;5.15;;;2.63;;
71856;SDS011;63344;46.980;28.882;2023-04-29T04:28:10;5.00;;;2.55;;
71856;SDS011;63344;46.980;28.882;2023-04-29T04:30:39;10.52;;;2.65;;
71856;SDS011;63344;46.980;28.882;2023-04-29T04:33:09;6.93;;;2.65;;
71856;SDS011;63344;46.980;28.882;2023-04-29T04:35:36;4.43;;;2.42;;
71856;SDS011;63344;46.980;28.882;2023-04-29T04:38:19;7.55;;;3.03;;
71856;SDS011;63344;46.980;28.882;2023-04-29T04:40:47;5.65;;;2.13;;
71856;SDS011;63344;46.980;28.882;2023-04-29T04:43:17;10.18;;;2.30;;
71856;SDS011;63344;46.980;28.882;2023-04-29T04:45:44;4.93;;;2.40;;
71856;SDS011;63344;46.980;28.882;2023-04-29T04:48:12;4.30;;;2.38;;
71856;SDS011;63344;46.980;28.882;2023-04-29T04:50:39;5.28;;;2.38;;
71856;SDS011;63344;46.980;28.882;2023-04-29T04:53:06;6.30;;;2.33;;
71856;SDS011;63344;46.980;28.882;2023-04-29T04:55:33;5.75;;;2.40;;
71856;SDS011;63344;46.980;28.882;2023-04-29T04:58:01;5.22;;;2.60;;
71856;SDS011;63344;46.980;28.882;2023-04-29T05:00:28;2.95;;;1.92;;
71856;SDS011;63344;46.980;28.882;2023-04-29T05:02:56;5.28;;;2.20;;
71856;SDS011;63344;46.980;28.882;2023-04-29T05:05:25;7.25;;;2.92;;
71856;SDS011;63344;46.980;28.882;2023-04-29T05:07:56;4.72;;;2.00;;
71856;SDS011;63344;46.980;28.882;2023-04-29T05:10:23;6.43;;;2.85;;
71856;SDS011;63344;46.980;28.882;2023-04-29T05:12:53;7.55;;;2.72;;
71856;SDS011;63344;46.980;28.882;2023-04-29T05:15:20;4.22;;;2.20;;
71856;SDS011;63344;46.980;28.882;2023-04-29T05:17:47;4.25;;;2.28;;
71856;SDS011;63344;46.980;28.882;2023-04-29T05:20:15;6.07;;;2.63;;
71856;SDS011;63344;46.980;28.882;2023-04-29T05:22:42;4.50;;;2.15;;
71856;SDS011;63344;46.980;28.882;2023-04-29T05:25:12;6.75;;;2.38;;
71856;SDS011;63344;46.980;28.882;2023-04-29T05:27:40;7.07;;;2.55;;
71856;SDS011;63344;46.980;28.882;2023-04-29T05:30:07;5.00;;;2.10;;
71856;SDS011;63344;46.980;28.882;2023-04-29T05:32:38;4.57;;;2.20;;
71856;SDS011;63344;46.980;28.882;2023-04-29T05:35:06;4.70;;;1.50;;
71856;SDS011;63344;46.980;28.882;2023-04-29T05:37:34;5.60;;;2.20;;
71856;SDS011;63344;46.980;28.882;2023-04-29T05:40:01;4.82;;;1.70;;
71856;SDS011;63344;46.980;28.882;2023-04-29T05:42:28;3.25;;;1.50;;
71856;SDS011;63344;46.980;28.882;2023-04-29T05:44:56;4.38;;;1.90;;
71856;SDS011;63344;46.980;28.882;2023-04-29T05:47:23;5.03;;;1.48;;
71856;SDS011;63344;46.980;28.882;2023-04-29T05:49:51;3.72;;;1.75;;
71856;SDS011;63344;46.980;28.882;2023-04-29T05:52:18;3.10;;;1.92;;
71856;SDS011;63344;46.980;28.882;2023-04-29T05:54:46;5.53;;;1.35;;
71856;SDS011;63344;46.980;28.882;2023-04-29T05:57:27;4.65;;;1.60;;
71856;SDS011;63344;46.980;28.882;2023-04-29T05:59:54;4.75;;;1.48;;
71856;SDS011;63344;46.980;28.882;2023-04-29T06:02:50;4.38;;;1.80;;
71856;SDS011;63344;46.980;28.882;2023-04-29T06:05:27;8.25;;;2.42;;
71856;SDS011;63344;46.980;28.882;2023-04-29T06:07:56;4.50;;;1.67;;
71856;SDS011;63344;46.980;28.882;2023-04-29T06:10:23;5.63;;;1.70;;
71856;SDS011;63344;46.980;28.882;2023-04-29T06:13:05;3.67;;;1.80;;
71856;SDS011;63344;46.980;28.882;2023-04-29T06:15:33;4.95;;;1.63;;
71856;SDS011;63344;46.980;28.882;2023-04-29T06:18:00;2.97;;;1.00;;
71856;SDS011;63344;46.980;28.882;2023-04-29T06:20:28;3.08;;;1.55;;
71856;SDS011;63344;46.980;28.882;2023-04-29T06:22:56;2.67;;;1.27;;
71856;SDS011;63344;46.980;28.882;2023-04-29T06:25:23;2.17;;;1.25;;
71856;SDS011;63344;46.980;28.882;2023-04-29T06:27:50;5.60;;;2.10;;
71856;SDS011;63344;46.980;28.882;2023-04-29T06:30:33;4.05;;;0.80;;
71856;SDS011;63344;46.980;28.882;2023-04-29T06:33:01;2.97;;;1.30;;
71856;SDS011;63344;46.980;28.882;2023-04-29T06:35:28;2.17;;;0.90;;
71856;SDS011;63344;46.980;28.882;2023-04-29T06:37:55;3.85;;;1.80;;
71856;SDS011;63344;46.980;28.882;2023-04-29T06:40:23;2.80;;;1.67;;
71856;SDS011;63344;46.980;28.882;2023-04-29T06:42:50;3.10;;;1.13;;
71856;SDS011;63344;46.980;28.882;2023-04-29T06:45:18;2.30;;;0.85;;
71856;SDS011;63344;46.980;28.882;2023-04-29T06:47:45;5.07;;;1.67;;
71856;SDS011;63344;46.980;28.882;2023-04-29T06:50:13;2.28;;;0.88;;
71856;SDS011;63344;46.980;28.882;2023-04-29T06:52:40;5.95;;;1.30;;
71856;SDS011;63344;46.980;28.882;2023-04-29T06:55:07;4.65;;;1.42;;
71856;SDS011;63344;46.980;28.882;2023-04-29T06:57:36;1.80;;;0.85;;
71856;SDS011;63344;46.980;28.882;2023-04-29T07:00:03;2.35;;;1.27;;
71856;SDS011;63344;46.980;28.882;2023-04-29T07:02:31;2.10;;;1.13;;
71856;SDS011;63344;46.980;28.882;2023-04-29T07:04:59;3.22;;;0.82;;
71856;SDS011;63344;46.980;28.882;2023-04-29T07:07:26;3.25;;;1.25;;
71856;SDS011;63344;46.980;28.882;2023-04-29T07:09:54;3.35;;;1.20;;
71856;SDS011;63344;46.980;28.882;2023-04-29T07:12:21;4.00;;;1.30;;
71856;SDS011;63344;46.980;28.882;2023-04-29T07:15:10;2.17;;;0.95;;
71856;SDS011;63344;46.980;28.882;2023-04-29T07:17:50;3.22;;;1.75;;
71856;SDS011;63344;46.980;28.882;2023-04-29T07:20:17;1.25;;;0.70;;
71856;SDS011;63344;46.980;28.882;2023-04-29T07:22:48;5.03;;;1.38;;
71856;SDS011;63344;46.980;28.882;2023-04-29T07:25:15;1.88;;;0.88;;
71856;SDS011;63344;46.980;28.882;2023-04-29T07:27:42;1.90;;;0.60;;
71856;SDS011;63344;46.980;28.882;2023-04-29T07:30:10;1.27;;;0.68;;
71856;SDS011;63344;46.980;28.882;2023-04-29T07:32:38;3.75;;;1.20;;
71856;SDS011;63344;46.980;28.882;2023-04-29T07:35:05;2.20;;;1.05;;
71856;SDS011;63344;46.980;28.882;2023-04-29T07:37:40;3.33;;;0.75;;
71856;SDS011;63344;46.980;28.882;2023-04-29T07:40:10;1.10;;;0.70;;
71856;SDS011;63344;46.980;28.882;2023-04-29T07:42:38;3.00;;;1.02;;
71856;SDS011;63344;46.980;28.882;2023-04-29T07:45:05;1.50;;;0.52;;
71856;SDS011;63344;46.980;28.882;2023-04-29T07:47:33;5.32;;;1.02;;
71856;SDS011;63344;46.980;28.882;2023-04-29T07:50:01;3.30;;;0.88;;
71856;SDS011;63344;46.980;28.882;2023-04-29T07:52:29;4.45;;;1.17;;
71856;SDS011;63344;46.980;28.882;2023-04-29T07:54:56;3.45;;;0.95;;
71856;SDS011;63344;46.980;28.882;2023-04-29T07:57:23;3.67;;;0.80;;
71856;SDS011;63344;46.980;28.882;2023-04-29T07:59:54;1.02;;;0.40;;
71856;SDS011;63344;46.980;28.882;2023-04-29T08:02:22;2.53;;;1.00;;
71856;SDS011;63344;46.980;28.882;2023-04-29T08:04:49;2.03;;;0.65;;
71856;SDS011;63344;46.980;28.882;2023-04-29T08:07:18;2.28;;;1.30;;
71856;SDS011;63344;46.980;28.882;2023-04-29T08:09:45;2.75;;;1.13;;
71856;SDS011;63344;46.980;28.882;2023-04-29T08:12:12;3.10;;;1.00;;
71856;SDS011;63344;46.980;28.882;2023-04-29T08:14:40;2.25;;;0.73;;
71856;SDS011;63344;46.980;28.882;2023-04-29T08:17:11;2.22;;;0.63;;
71856;SDS011;63344;46.980;28.882;2023-04-29T08:19:38;1.85;;;0.77;;
71856;SDS011;63344;46.980;28.882;2023-04-29T08:22:17;1.90;;;1.13;;
71856;SDS011;63344;46.980;28.882;2023-04-29T08:24:44;1.25;;;0.90;;
71856;SDS011;63344;46.980;28.882;2023-04-29T08:27:12;4.28;;;1.38;;
71856;SDS011;63344;46.980;28.882;2023-04-29T08:29:42;4.20;;;1.52;;
71856;SDS011;63344;46.980;28.882;2023-04-29T08:32:09;5.03;;;1.38;;
71856;SDS011;63344;46.980;28.882;2023-04-29T08:34:37;2.33;;;1.30;;
71856;SDS011;63344;46.980;28.882;2023-04-29T08:37:04;2.88;;;0.90;;
71856;SDS011;63344;46.980;28.882;2023-04-29T08:39:33;2.05;;;1.27;;
71856;SDS011;63344;46.980;28.882;2023-04-29T08:42:07;1.75;;;1.00;;
71856;SDS011;63344;46.980;28.882;2023-04-29T08:44:35;3.17;;;1.40;;
71856;SDS011;63344;46.980;28.882;2023-04-29T08:47:04;2.95;;;1.25;;
71856;SDS011;63344;46.980;28.882;2023-04-29T08:49:33;3.50;;;1.20;;
71856;SDS011;63344;46.980;28.882;2023-04-29T08:52:00;5.07;;;1.35;;
71856;SDS011;63344;46.980;28.882;2023-04-29T08:54:30;1.48;;;1.17;;
71856;SDS011;63344;46.980;28.882;2023-04-29T08:56:58;5.15;;;1.48;;
71856;SDS011;63344;46.980;28.882;2023-04-29T08:59:28;2.38;;;1.00;;
71856;SDS011;63344;46.980;28.882;2023-04-29T09:01:56;1.75;;;1.17;;
71856;SDS011;63344;46.980;28.882;2023-04-29T09:07:17;1.73;;;0.98;;
71856;SDS011;63344;46.980;28.882;2023-04-29T09:09:44;2.50;;;1.38;;
71856;SDS011;63344;46.980;28.882;2023-04-29T09:12:13;2.92;;;1.10;;
71856;SDS011;63344;46.980;28.882;2023-04-29T09:14:42;2.40;;;1.15;;
71856;SDS011;63344;46.980;28.882;2023-04-29T09:17:11;2.97;;;1.42;;
71856;SDS011;63344;46.980;28.882;2023-04-29T09:19:38;2.67;;;1.00;;
71856;SDS011;63344;46.980;28.882;2023-04-29T09:22:26;3.03;;;1.45;;
71856;SDS011;63344;46.980;28.882;2023-04-29T09:25:16;4.78;;;1.30;;
71856;SDS011;63344;46.980;28.882;2023-04-29T09:27:53;5.03;;;1.33;;
71856;SDS011;63344;46.980;28.882;2023-04-29T09:30:22;3.15;;;1.33;;
71856;SDS011;63344;46.980;28.882;2023-04-29T09:33:07;2.63;;;0.85;;
71856;SDS011;63344;46.980;28.882;2023-04-29T09:35:35;1.33;;;0.90;;
71856;SDS011;63344;46.980;28.882;2023-04-29T09:38:13;2.13;;;1.20;;
71856;SDS011;63344;46.980;28.882;2023-04-29T09:40:42;4.72;;;1.30;;
71856;SDS011;63344;46.980;28.882;2023-04-29T09:43:25;1.80;;;1.17;;
71856;SDS011;63344;46.980;28.882;2023-04-29T09:45:58;1.45;;;1.35;;
71856;SDS011;63344;46.980;28.882;2023-04-29T09:48:29;7.15;;;1.90;;
71856;SDS011;63344;46.980;28.882;2023-04-29T09:51:00;3.20;;;1.38;;
71856;SDS011;63344;46.980;28.882;2023-04-29T09:53:29;1.73;;;1.00;;
71856;SDS011;63344;46.980;28.882;2023-04-29T09:55:59;1.58;;;1.13;;
71856;SDS011;63344;46.980;28.882;2023-04-29T09:58:29;2.47;;;1.05;;
71856;SDS011;63344;46.980;28.882;2023-04-29T10:01:00;0.93;;;0.80;;
71856;SDS011;63344;46.980;28.882;2023-04-29T10:03:30;3.00;;;0.90;;
71856;SDS011;63344;46.980;28.882;2023-04-29T10:06:04;2.40;;;0.80;;
71856;SDS011;63344;46.980;28.882;2023-04-29T10:08:33;3.65;;;1.20;;
71856;SDS011;63344;46.980;28.882;2023-04-29T10:11:03;2.13;;;1.00;;
71856;SDS011;63344;46.980;28.882;2023-04-29T10:13:49;3.08;;;1.70;;
71856;SDS011;63344;46.980;28.882;2023-04-29T10:16:22;3.63;;;1.10;;
71856;SDS011;63344;46.980;28.882;2023-04-29T10:18:55;1.48;;;1.10;;
71856;SDS011;63344;46.980;28.882;2023-04-29T10:21:37;1.80;;;1.20;;
71856;SDS011;63344;46.980;28.882;2023-04-29T10:24:05;2.33;;;0.85;;
71856;SDS011;63344;46.980;28.882;2023-04-29T10:26:34;1.05;;;0.80;;
71856;SDS011;63344;46.980;28.882;2023-04-29T10:29:07;2.58;;;1.17;;
71856;SDS011;63344;46.980;28.882;2023-04-29T10:31:42;1.15;;;0.70;;
71856;SDS011;63344;46.980;28.882;2023-04-29T10:34:10;1.17;;;0.80;;
71856;SDS011;63344;46.980;28.882;2023-04-29T10:36:41;2.30;;;0.95;;
71856;SDS011;63344;46.980;28.882;2023-04-29T10:39:11;1.85;;;1.10;;
71856;SDS011;63344;46.980;28.882;2023-04-29T10:41:48;1.38;;;0.93;;
71856;SDS011;63344;46.980;28.882;2023-04-29T10:44:17;2.85;;;1.00;;
71856;SDS011;63344;46.980;28.882;2023-04-29T10:46:44;2.45;;;1.10;;
71856;SDS011;63344;46.980;28.882;2023-04-29T10:49:12;1.73;;;1.00;;
71856;SDS011;63344;46.980;28.882;2023-04-29T10:51:46;4.28;;;0.75;;
71856;SDS011;63344;46.980;28.882;2023-04-29T10:54:16;2.15;;;1.20;;
71856;SDS011;63344;46.980;28.882;2023-04-29T10:56:52;1.25;;;0.80;;
71856;SDS011;63344;46.980;28.882;2023-04-29T11:02:11;1.13;;;0.50;;
71856;SDS011;63344;46.980;28.882;2023-04-29T11:07:34;1.67;;;0.60;;
71856;SDS011;63344;46.980;28.882;2023-04-29T11:10:01;3.08;;;1.30;;
71856;SDS011;63344;46.980;28.882;2023-04-29T11:12:29;2.92;;;1.08;;
71856;SDS011;63344;46.980;28.882;2023-04-29T11:14:56;1.45;;;0.93;;
71856;SDS011;63344;46.980;28.882;2023-04-29T11:17:34;3.28;;;0.90;;
71856;SDS011;63344;46.980;28.882;2023-04-29T11:20:04;5.20;;;0.90;;
71856;SDS011;63344;46.980;28.882;2023-04-29T11:22:40;4.25;;;1.50;;
71856;SDS011;63344;46.980;28.882;2023-04-29T11:25:16;2.97;;;0.75;;
71856;SDS011;63344;46.980;28.882;2023-04-29T11:27:45;1.85;;;0.68;;
71856;SDS011;63344;46.980;28.882;2023-04-29T11:30:15;2.55;;;0.57;;
71856;SDS011;63344;46.980;28.882;2023-04-29T11:32:45;2.17;;;0.90;;
71856;SDS011;63344;46.980;28.882;2023-04-29T11:35:15;4.32;;;1.33;;
71856;SDS011;63344;46.980;28.882;2023-04-29T11:37:44;2.58;;;0.93;;
71856;SDS011;63344;46.980;28.882;2023-04-29T11:40:13;1.25;;;0.77;;
71856;SDS011;63344;46.980;28.882;2023-04-29T11:42:43;2.38;;;0.60;;
71856;SDS011;63344;46.980;28.882;2023-04-29T11:45:11;1.83;;;0.70;;
71856;SDS011;63344;46.980;28.882;2023-04-29T11:47:41;2.53;;;0.80;;
71856;SDS011;63344;46.980;28.882;2023-04-29T11:50:12;2.03;;;0.90;;
71856;SDS011;63344;46.980;28.882;2023-04-29T11:52:42;2.78;;;1.13;;
71856;SDS011;63344;46.980;28.882;2023-04-29T11:55:12;2.42;;;0.50;;
71856;SDS011;63344;46.980;28.882;2023-04-29T11:57:40;1.88;;;0.95;;
71856;SDS011;63344;46.980;28.882;2023-04-29T12:00:09;3.15;;;1.05;;
71856;SDS011;63344;46.980;28.882;2023-04-29T12:02:42;2.60;;;0.80;;
71856;SDS011;63344;46.980;28.882;2023-04-29T12:05:13;2.20;;;0.60;;
71856;SDS011;63344;46.980;28.882;2023-04-29T12:07:43;3.58;;;1.20;;
71856;SDS011;63344;46.980;28.882;2023-04-29T12:10:16;1.95;;;0.50;;
71856;SDS011;63344;46.980;28.882;2023-04-29T12:12:43;1.73;;;0.88;;
71856;SDS011;63344;46.980;28.882;2023-04-29T12:15:12;2.95;;;1.10;;
71856;SDS011;63344;46.980;28.882;2023-04-29T12:17:40;1.00;;;0.52;;
71856;SDS011;63344;46.980;28.882;2023-04-29T12:20:09;1.38;;;0.60;;
71856;SDS011;63344;46.980;28.882;2023-04-29T12:22:38;1.85;;;0.80;;
71856;SDS011;63344;46.980;28.882;2023-04-29T12:25:06;4.68;;;0.95;;
71856;SDS011;63344;46.980;28.882;2023-04-29T12:27:34;1.38;;;0.80;;
71856;SDS011;63344;46.980;28.882;2023-04-29T12:30:05;3.70;;;0.70;;
71856;SDS011;63344;46.980;28.882;2023-04-29T12:32:36;1.67;;;0.75;;
71856;SDS011;63344;46.980;28.882;2023-04-29T12:35:05;1.00;;;0.57;;
71856;SDS011;63344;46.980;28.882;2023-04-29T12:37:32;2.38;;;1.02;;
71856;SDS011;63344;46.980;28.882;2023-04-29T12:40:01;1.17;;;0.63;;
71856;SDS011;63344;46.980;28.882;2023-04-29T12:42:32;2.45;;;0.68;;
71856;SDS011;63344;46.980;28.882;2023-04-29T12:45:00;4.43;;;0.88;;
71856;SDS011;63344;46.980;28.882;2023-04-29T12:47:31;1.67;;;0.90;;
71856;SDS011;63344;46.980;28.882;2023-04-29T12:50:04;1.65;;;0.82;;
71856;SDS011;63344;46.980;28.882;2023-04-29T12:53:04;2.10;;;0.50;;
71856;SDS011;63344;46.980;28.882;2023-04-29T12:55:33;1.05;;;0.50;;
71856;SDS011;63344;46.980;28.882;2023-04-29T12:58:17;1.38;;;0.75;;
71856;SDS011;63344;46.980;28.882;2023-04-29T13:00:45;2.58;;;0.77;;
71856;SDS011;63344;46.980;28.882;2023-04-29T13:03:12;1.05;;;0.68;;
71856;SDS011;63344;46.980;28.882;2023-04-29T13:05:41;2.47;;;0.50;;
71856;SDS011;63344;46.980;28.882;2023-04-29T13:08:08;1.52;;;0.47;;
71856;SDS011;63344;46.980;28.882;2023-04-29T13:10:35;3.25;;;0.75;;
71856;SDS011;63344;46.980;28.882;2023-04-29T13:13:02;2.17;;;1.00;;
71856;SDS011;63344;46.980;28.882;2023-04-29T13:15:30;2.22;;;0.65;;
71856;SDS011;63344;46.980;28.882;2023-04-29T13:17:58;4.20;;;0.70;;
71856;SDS011;63344;46.980;28.882;2023-04-29T13:20:26;1.42;;;0.70;;
71856;SDS011;63344;46.980;28.882;2023-04-29T13:22:54;2.88;;;0.98;;
71856;SDS011;63344;46.980;28.882;2023-04-29T13:25:21;1.40;;;0.80;;
71856;SDS011;63344;46.980;28.882;2023-04-29T13:27:49;1.27;;;0.55;;
71856;SDS011;63344;46.980;28.882;2023-04-29T13:30:17;1.40;;;0.80;;
71856;SDS011;63344;46.980;28.882;2023-04-29T13:32:44;1.00;;;0.40;;
71856;SDS011;63344;46.980;28.882;2023-04-29T13:35:20;2.47;;;1.02;;
71856;SDS011;63344;46.980;28.882;2023-04-29T13:37:49;3.70;;;0.70;;
71856;SDS011;63344;46.980;28.882;2023-04-29T13:40:20;1.42;;;0.80;;
71856;SDS011;63344;46.980;28.882;2023-04-29T13:43:03;2.28;;;1.08;;
71856;SDS011;63344;46.980;28.882;2023-04-29T13:45:33;1.02;;;0.50;;
71856;SDS011;63344;46.980;28.882;2023-04-29T13:48:09;1.40;;;0.45;;
71856;SDS011;63344;46.980;28.882;2023-04-29T13:50:56;5.07;;;0.63;;
71856;SDS011;63344;46.980;28.882;2023-04-29T13:53:26;3.00;;;0.73;;
71856;SDS011;63344;46.980;28.882;2023-04-29T13:55:57;1.58;;;0.70;;
71856;SDS011;63344;46.980;28.882;2023-04-29T13:58:32;3.85;;;0.47;;
71856;SDS011;63344;46.980;28.882;2023-04-29T14:01:20;1.88;;;0.68;;
71856;SDS011;63344;46.980;28.882;2023-04-29T14:03:51;1.77;;;0.50;;
71856;SDS011;63344;46.980;28.882;2023-04-29T14:06:18;2.67;;;0.77;;
71856;SDS011;63344;46.980;28.882;2023-04-29T14:08:45;1.83;;;0.60;;
71856;SDS011;63344;46.980;28.882;2023-04-29T14:11:13;1.65;;;0.75;;
71856;SDS011;63344;46.980;28.882;2023-04-29T14:16:33;1.80;;;0.95;;
71856;SDS011;63344;46.980;28.882;2023-04-29T14:19:01;2.42;;;1.00;;
71856;SDS011;63344;46.980;28.882;2023-04-29T14:21:30;2.33;;;0.77;;
71856;SDS011;63344;46.980;28.882;2023-04-29T14:23:59;1.40;;;0.63;;
71856;SDS011;63344;46.980;28.882;2023-04-29T14:26:28;1.55;;;0.60;;
71856;SDS011;63344;46.980;28.882;2023-04-29T14:28:57;1.55;;;0.70;;
71856;SDS011;63344;46.980;28.882;2023-04-29T14:31:26;1.80;;;0.50;;
71856;SDS011;63344;46.980;28.882;2023-04-29T14:33:55;1.17;;;0.40;;
71856;SDS011;63344;46.980;28.882;2023-04-29T14:36:24;1.60;;;0.65;;
71856;SDS011;63344;46.980;28.882;2023-04-29T14:38:54;2.30;;;0.80;;
71856;SDS011;63344;46.980;28.882;2023-04-29T14:41:22;4.93;;;0.90;;
71856;SDS011;63344;46.980;28.882;2023-04-29T14:43:49;1.60;;;0.77;;
71856;SDS011;63344;46.980;28.882;2023-04-29T14:46:16;2.65;;;0.60;;
71856;SDS011;63344;46.980;28.882;2023-04-29T14:48:44;2.08;;;0.82;;
71856;SDS011;63344;46.980;28.882;2023-04-29T14:51:13;2.28;;;0.75;;
71856;SDS011;63344;46.980;28.882;2023-04-29T14:53:40;2.40;;;0.73;;
71856;SDS011;63344;46.980;28.882;2023-04-29T14:56:07;1.85;;;0.75;;
71856;SDS011;63344;46.980;28.882;2023-04-29T15:01:06;1.52;;;1.15;;
71856;SDS011;63344;46.980;28.882;2023-04-29T15:03:33;3.40;;;0.90;;
71856;SDS011;63344;46.980;28.882;2023-04-29T15:06:11;2.42;;;0.80;;
71856;SDS011;63344;46.980;28.882;2023-04-29T15:08:38;1.88;;;0.70;;
71856;SDS011;63344;46.980;28.882;2023-04-29T15:11:06;2.40;;;0.63;;
71856;SDS011;63344;46.980;28.882;2023-04-29T15:13:33;1.85;;;0.55;;
71856;SDS011;63344;46.980;28.882;2023-04-29T15:16:01;2.00;;;0.70;;
71856;SDS011;63344;46.980;28.882;2023-04-29T15:18:28;3.60;;;0.63;;